createdAt,value
2019-03-08T00:01:17.832Z,97410.71
2019-03-08T00:05:23.666Z,97429.15
2019-03-08T00:09:29.363Z,97424.02
2019-03-08T00:13:35.077Z,97431.41
2019-03-08T00:17:40.911Z,97434.02
2019-03-08T00:21:48.118Z,97434.32
2019-03-08T00:25:53.796Z,97438.22
2019-03-08T00:29:59.560Z,97433.86
2019-03-08T00:34:05.427Z,97438.19
2019-03-08T00:38:11.192Z,97445.14
2019-03-08T00:42:17.027Z,97451.96
2019-03-08T00:46:22.718Z,97450.50
2019-03-08T00:50:28.437Z,97451.94
2019-03-08T00:54:36.249Z,97458.39
2019-03-08T00:58:41.921Z,97464.11
2019-03-08T01:02:47.607Z,97456.52
2019-03-08T01:06:53.363Z,97468.84
2019-03-08T01:10:59.277Z,97466.91
2019-03-08T01:15:09.270Z,97470.16
2019-03-08T01:19:14.958Z,97464.11
2019-03-08T01:23:20.794Z,97464.59
2019-03-08T01:27:26.489Z,97463.47
2019-03-08T01:31:32.460Z,97466.38
2019-03-08T01:35:38.295Z,97469.08
2019-03-08T01:39:43.990Z,97464.48
2019-03-08T01:43:49.684Z,97474.03
2019-03-08T01:47:57.570Z,97475.78
2019-03-08T01:52:03.501Z,97481.64
2019-03-08T01:56:10.811Z,97490.27
2019-03-08T02:00:20.470Z,97486.67
2019-03-08T02:04:27.264Z,97489.48
2019-03-08T02:08:34.130Z,97479.72
2019-03-08T02:12:39.829Z,97486.27
2019-03-08T02:16:45.529Z,97486.27
2019-03-08T02:20:52.284Z,97509.52
2019-03-08T02:24:58.257Z,97503.05
2019-03-08T02:29:03.946Z,97504.11
2019-03-08T02:33:09.915Z,97508.84
2019-03-08T02:37:15.597Z,97506.61
2019-03-08T02:41:21.297Z,97499.22
2019-03-08T02:45:27.054Z,97491.94
2019-03-08T02:49:32.827Z,97492.80
2019-03-08T02:53:38.523Z,97499.09
2019-03-08T02:57:44.222Z,97499.63
2019-03-08T03:01:49.898Z,97505.37
2019-03-08T03:05:55.585Z,97512.15
2019-03-08T03:10:02.294Z,97512.91
2019-03-08T03:14:08.054Z,97508.62
2019-03-08T03:18:13.782Z,97521.13
2019-03-08T03:22:19.490Z,97528.42
2019-03-08T03:26:25.260Z,97546.07
2019-03-08T03:30:31.031Z,97559.38
2019-03-08T03:34:36.723Z,97560.11
2019-03-08T03:38:42.414Z,97568.48
2019-03-08T03:42:48.337Z,97572.65
2019-03-08T03:46:54.027Z,97576.77
2019-03-08T03:50:59.872Z,97580.23
2019-03-08T03:55:14.717Z,97584.30
2019-03-08T03:59:20.404Z,97585.97
2019-03-08T04:03:26.377Z,97589.95
2019-03-08T04:07:32.072Z,97606.25
2019-03-08T04:11:37.807Z,97615.50
2019-03-08T04:15:43.524Z,97626.86
2019-03-08T04:19:49.315Z,97637.03
2019-03-08T04:23:55.252Z,97640.13
2019-03-08T04:28:01.061Z,97648.23
2019-03-08T04:32:06.754Z,97648.81
2019-03-08T04:36:12.435Z,97653.39
2019-03-08T04:40:18.115Z,97663.75
2019-03-08T04:44:23.794Z,97675.91
2019-03-08T04:48:29.479Z,97676.84
2019-03-08T04:52:35.221Z,97676.72
2019-03-08T04:56:40.903Z,97687.92
2019-03-08T05:00:46.602Z,97685.21
2019-03-08T05:04:52.359Z,97673.14
2019-03-08T05:08:58.048Z,97663.94
2019-03-08T05:13:03.718Z,97665.03
2019-03-08T05:17:10.363Z,97676.14
2019-03-08T05:21:16.049Z,97682.42
2019-03-08T05:25:21.732Z,97673.88
2019-03-08T05:29:27.410Z,97680.07
2019-03-08T05:33:33.069Z,97680.20
2019-03-08T05:37:39.742Z,97682.71
2019-03-08T05:41:45.610Z,97686.54
2019-03-08T05:45:51.302Z,97688.95
2019-03-08T05:49:57.134Z,97697.38
2019-03-08T05:54:02.820Z,97706.66
2019-03-08T05:58:08.535Z,97721.23
2019-03-08T06:02:14.222Z,97730.34
2019-03-08T06:06:19.914Z,97736.37
2019-03-08T06:10:31.369Z,97735.58
2019-03-08T06:14:37.041Z,97742.75
2019-03-08T06:18:42.741Z,97741.68
2019-03-08T06:22:48.452Z,97743.48
2019-03-08T06:26:54.126Z,97757.20
2019-03-08T06:31:00.068Z,97757.53
2019-03-08T06:35:07.364Z,97765.73
2019-03-08T06:39:13.038Z,97768.70
2019-03-08T06:43:18.735Z,97780.95
2019-03-08T06:47:24.417Z,97783.31
2019-03-08T06:51:30.154Z,97784.66
2019-03-08T06:55:35.847Z,97800.75
2019-03-08T06:59:43.352Z,97797.02
2019-03-08T07:03:49.040Z,97803.77
2019-03-08T07:07:54.743Z,97819.55
2019-03-08T07:12:00.401Z,97822.95
2019-03-08T07:16:12.786Z,97834.47
2019-03-08T07:20:31.062Z,97849.83
2019-03-08T07:24:38.396Z,97848.38
2019-03-08T07:29:00.699Z,97863.12
2019-03-08T07:33:08.060Z,97871.70
2019-03-08T07:37:30.998Z,97874.20
2019-03-08T07:41:41.193Z,97870.78
2019-03-08T07:45:48.529Z,97887.08
2019-03-08T07:49:55.872Z,97905.55
2019-03-08T07:54:03.183Z,97908.08
2019-03-08T07:58:13.520Z,97919.42
2019-03-08T08:02:20.853Z,97921.77
2019-03-08T08:06:28.303Z,97933.69
2019-03-08T08:10:38.380Z,97932.41
2019-03-08T08:14:48.427Z,97948.90
2019-03-08T08:19:04.908Z,97952.98
2019-03-08T08:23:15.383Z,97957.38
2019-03-08T08:27:22.720Z,97969.98
2019-03-08T08:31:44.812Z,97973.35
2019-03-08T08:36:07.198Z,97976.91
2019-03-08T08:40:15.676Z,97977.86
2019-03-08T08:44:23.006Z,97993.95
2019-03-08T08:48:28.509Z,98000.59
2019-03-08T08:52:37.019Z,98007.38
2019-03-08T08:56:53.514Z,97997.27
2019-03-08T09:01:04.835Z,98006.33
2019-03-08T09:05:18.242Z,98009.00
2019-03-08T09:09:34.618Z,98017.00
2019-03-08T09:13:44.658Z,98013.00
2019-03-08T09:17:52.011Z,98009.83
2019-03-08T09:22:03.363Z,98008.27
2019-03-08T09:26:26.915Z,98013.83
2019-03-08T09:30:37.425Z,98015.14
2019-03-08T09:34:44.762Z,98012.70
2019-03-08T09:39:01.279Z,98012.38
2019-03-08T09:43:19.553Z,98010.95
2019-03-08T09:47:44.565Z,98011.71
2019-03-08T09:52:00.789Z,98021.98
2019-03-08T09:56:17.389Z,98028.07
2019-03-08T10:00:31.367Z,98030.14
2019-03-08T10:04:54.368Z,98032.66
2019-03-08T10:09:01.702Z,98043.91
2019-03-08T10:13:13.626Z,98038.08
2019-03-08T10:17:36.945Z,98054.10
2019-03-08T10:21:44.282Z,98050.44
2019-03-08T10:25:55.477Z,98048.92
2019-03-08T10:30:05.797Z,98066.08
2019-03-08T10:34:22.832Z,98069.84
2019-03-08T10:38:36.158Z,98079.60
2019-03-08T10:42:50.980Z,98099.41
2019-03-08T10:47:10.419Z,98087.91
2019-03-08T10:51:22.086Z,98093.89
2019-03-08T10:55:41.811Z,98118.25
2019-03-08T10:59:52.203Z,98110.09
2019-03-08T11:04:15.330Z,98110.45
2019-03-08T11:08:37.933Z,98106.55
2019-03-08T11:12:54.353Z,98102.29
2019-03-08T11:17:07.406Z,98101.81
2019-03-08T11:21:20.540Z,98111.83
2019-03-08T11:25:43.795Z,98121.94
2019-03-08T11:30:07.352Z,98112.31
2019-03-08T11:34:17.514Z,98099.22
2019-03-08T11:38:24.891Z,98108.03
2019-03-08T11:42:40.892Z,98104.47
2019-03-08T11:47:00.223Z,98115.53
2019-03-08T11:51:24.230Z,98119.29
2019-03-08T11:55:41.589Z,98110.82
2019-03-08T11:59:48.918Z,98110.72
2019-03-08T12:04:12.016Z,98116.59
2019-03-08T12:08:24.886Z,98118.45
2019-03-08T12:12:46.486Z,98126.69
2019-03-08T12:17:09.713Z,98135.44
2019-03-08T12:21:15.215Z,98127.69
2019-03-08T12:25:22.920Z,98123.40
2019-03-08T12:29:48.027Z,98126.20
2019-03-08T12:33:58.354Z,98131.34
2019-03-08T12:38:08.092Z,98117.05
2019-03-08T12:42:18.191Z,98114.99
2019-03-08T12:46:30.273Z,98106.95
2019-03-08T12:50:40.549Z,98104.91
2019-03-08T12:55:04.164Z,98107.67
2019-03-08T12:59:11.497Z,98123.77
2019-03-08T13:03:35.164Z,98115.70
2019-03-08T13:07:54.245Z,98125.48
2019-03-08T13:12:00.046Z,98141.45
2019-03-08T13:16:05.971Z,98140.22
2019-03-08T13:20:17.823Z,98141.42
2019-03-08T13:24:23.506Z,98147.76
2019-03-08T13:28:29.210Z,98155.94
2019-03-08T13:32:34.904Z,98149.97
2019-03-08T13:36:40.609Z,98142.94
2019-03-08T13:40:46.304Z,98148.03
2019-03-08T13:44:51.981Z,98151.95
2019-03-08T13:48:57.739Z,98146.50
2019-03-08T13:53:03.612Z,98147.61
2019-03-08T13:57:09.312Z,98150.22
2019-03-08T14:01:16.960Z,98158.61
2019-03-08T14:05:22.735Z,98166.06
2019-03-08T14:09:28.410Z,98169.92
2019-03-08T14:13:34.109Z,98171.95
2019-03-08T14:17:39.811Z,98166.46
2019-03-08T14:21:45.539Z,98177.41
2019-03-08T14:25:51.250Z,98196.53
2019-03-08T14:29:59.234Z,98193.19
2019-03-08T14:34:04.559Z,98199.91
2019-03-08T14:38:10.260Z,98197.13
2019-03-08T14:42:17.669Z,98191.47
2019-03-08T14:46:29.045Z,98197.50
2019-03-08T14:50:35.516Z,98202.21
2019-03-08T14:54:45.999Z,98204.44
2019-03-08T14:58:49.510Z,98199.44
2019-03-08T15:02:55.219Z,98191.08
2019-03-08T15:07:01.284Z,98181.41
2019-03-08T15:11:08.344Z,98195.77
2019-03-08T15:15:16.855Z,98184.44
2019-03-08T15:19:22.557Z,98187.09
2019-03-08T15:23:28.320Z,98191.67
2019-03-08T15:27:34.569Z,98183.02
2019-03-08T15:32:16.834Z,98174.54
2019-03-08T15:36:23.549Z,98177.20
2019-03-08T15:40:33.199Z,98180.19
2019-03-08T15:44:54.534Z,98181.74
2019-03-08T15:49:00.403Z,98182.95
2019-03-08T15:57:31.200Z,98181.20
2019-03-08T16:01:36.961Z,98184.81
2019-03-08T16:05:42.663Z,98177.38
2019-03-08T16:09:48.644Z,98193.19
2019-03-08T16:13:54.409Z,98191.73
2019-03-08T16:18:00.231Z,98196.36
2019-03-08T16:22:06.065Z,98195.05
2019-03-08T16:30:47.755Z,98200.09
2019-03-08T16:34:54.203Z,98192.85
2019-03-08T16:39:03.925Z,98198.09
2019-03-08T16:43:15.135Z,98204.09
2019-03-08T16:47:42.596Z,98198.09
2019-03-08T16:52:03.168Z,98206.44
2019-03-08T16:56:16.233Z,98213.75
2019-03-08T17:00:35.598Z,98221.22
2019-03-08T17:04:41.075Z,98219.36
2019-03-08T17:08:57.480Z,98228.39
2019-03-08T17:13:03.057Z,98228.20
2019-03-08T17:17:10.492Z,98237.21
2019-03-08T17:21:17.835Z,98250.96
2019-03-08T17:25:25.166Z,98254.19
2019-03-08T17:29:35.157Z,98255.39
2019-03-08T17:33:42.495Z,98250.80
2019-03-08T17:37:49.816Z,98255.41
2019-03-08T17:41:57.152Z,98266.00
2019-03-08T17:46:10.879Z,98273.38
2019-03-08T17:50:16.496Z,98272.11
2019-03-08T17:54:42.007Z,98281.22
2019-03-08T17:58:49.348Z,98289.02
2019-03-08T18:03:12.543Z,98299.33
2019-03-08T18:07:34.989Z,98299.14
2019-03-08T18:11:52.205Z,98299.14
2019-03-08T18:16:02.578Z,98297.45
2019-03-08T18:20:16.757Z,98302.39
2019-03-08T18:24:30.194Z,98304.36
2019-03-08T18:28:42.985Z,98311.78
2019-03-08T18:33:18.876Z,98313.49
2019-03-08T18:37:36.229Z,98322.34
2019-03-08T18:41:46.282Z,98314.00
2019-03-08T18:46:02.188Z,98330.02
2019-03-08T18:50:09.051Z,98333.68
2019-03-08T18:54:32.023Z,98348.75
2019-03-08T18:58:42.044Z,98354.21
2019-03-08T19:03:05.223Z,98346.20
2019-03-08T19:07:10.716Z,98335.63
2019-03-08T19:11:18.198Z,98338.45
2019-03-08T19:15:25.537Z,98336.33
2019-03-08T19:19:32.943Z,98335.97
2019-03-08T19:23:46.517Z,98330.53
2019-03-08T19:27:54.047Z,98336.64
2019-03-08T19:32:16.036Z,98331.00
2019-03-08T19:36:29.376Z,98344.47
2019-03-08T19:40:34.852Z,98344.66
2019-03-08T19:44:46.208Z,98344.83
2019-03-08T19:49:10.807Z,98339.20
2019-03-08T19:53:23.994Z,98335.47
2019-03-08T19:58:17.030Z,98338.19
2019-03-08T20:02:42.297Z,98345.75
2019-03-08T20:06:48.832Z,98351.82
2019-03-08T20:11:09.461Z,98349.23
2019-03-08T20:15:20.040Z,98362.33
2019-03-08T20:19:27.451Z,98360.91
2019-03-08T20:28:34.438Z,98375.64
2019-03-08T20:32:44.307Z,98371.03
2019-03-08T20:37:16.979Z,98371.66
2019-03-08T20:41:24.389Z,98370.94
2019-03-08T20:45:41.517Z,98368.70
2019-03-08T20:49:47.271Z,98373.98
2019-03-08T20:53:52.976Z,98374.69
2019-03-08T20:58:16.737Z,98377.34
2019-03-08T21:02:22.640Z,98378.59
2019-03-08T21:06:28.448Z,98377.90
2019-03-08T21:10:34.149Z,98374.81
2019-03-08T21:14:39.914Z,98375.41
2019-03-08T21:19:02.930Z,98364.99
2019-03-08T21:23:08.590Z,98360.38
2019-03-08T21:27:14.342Z,98364.40
2019-03-08T21:31:20.114Z,98372.49
2019-03-08T21:35:25.789Z,98367.72
2019-03-08T21:39:31.487Z,98363.43
2019-03-08T21:43:37.205Z,98358.21
2019-03-08T21:47:43.941Z,98364.59
2019-03-08T21:51:49.902Z,98359.84
2019-03-08T21:55:55.619Z,98350.36
2019-03-08T22:00:01.315Z,98346.48
2019-03-08T22:04:19.322Z,98342.80
2019-03-08T22:08:25.015Z,98345.64
2019-03-08T22:12:30.730Z,98336.80
2019-03-08T22:16:36.454Z,98329.10
2019-03-08T22:20:42.202Z,98332.98
2019-03-08T22:24:47.895Z,98327.97
2019-03-08T22:28:53.580Z,98326.09
2019-03-08T22:32:59.289Z,98320.18
2019-03-08T22:37:06.164Z,98309.92
2019-03-08T22:41:11.886Z,98317.86
2019-03-08T22:45:17.633Z,98318.77
2019-03-08T22:49:23.325Z,98311.97
2019-03-08T22:53:29.023Z,98314.98
2019-03-08T22:57:35.783Z,98302.50
2019-03-08T23:01:43.378Z,98294.71
2019-03-08T23:05:49.141Z,98290.71
2019-03-08T23:09:54.914Z,98291.23
2019-03-08T23:14:00.606Z,98284.95
2019-03-08T23:18:06.468Z,98281.95
2019-03-08T23:22:12.165Z,98282.18
2019-03-08T23:26:17.842Z,98280.01
2019-03-08T23:30:25.200Z,98287.17
2019-03-08T23:34:30.890Z,98274.55
2019-03-08T23:38:36.587Z,98269.60
2019-03-08T23:42:42.354Z,98272.52
2019-03-08T23:46:48.031Z,98276.44
2019-03-08T23:50:54.007Z,98272.50
2019-03-08T23:54:59.702Z,98272.86
2019-03-08T23:59:05.537Z,98270.09
